Time;durP1;ratioP1;P1;durP2;ratioP2;P2;SDS_P1;SDS_P2;PMS_P1;PMS_P2;Temp;Humidity;BMP_temperature;BMP_pressure;BME280_temperature;BME280_humidity;BME280_pressure;Samples;Min_cycle;Max_cycle;Signal;HPM_P1;HPM_P2
2021/12/17 00:04:50;;;;;;;32.97;23.95;;;;;;;5.66;100.00;103835.75;5039261;28;20029;-80
2021/12/17 00:07:16;;;;;;;38.00;25.88;;;;;;;5.65;100.00;103837.56;5032057;28;20355;-80
2021/12/17 00:09:44;;;;;;;35.10;23.42;;;;;;;5.65;100.00;103832.22;5045500;28;20444;-80
2021/12/17 00:12:12;;;;;;;40.67;25.30;;;;;;;5.62;100.00;103837.53;5041485;28;20380;-80
2021/12/17 00:14:39;;;;;;;35.50;24.58;;;;;;;5.62;100.00;103829.53;5034922;28;20033;-80
2021/12/17 00:17:09;;;;;;;35.33;24.98;;;;;;;5.66;100.00;103833.09;5039625;28;20033;-80
2021/12/17 00:49:25;;;;;;;35.85;23.85;;;;;;;5.82;100.00;103823.25;5042325;28;20071;-80
2021/12/17 00:52:02;;;;;;;34.53;25.33;;;;;;;5.84;100.00;103817.00;5032343;28;20025;-80
2021/12/17 00:54:38;;;;;;;39.97;27.73;;;;;;;5.85;100.00;103812.53;5043663;28;20028;-80
2021/12/17 00:57:20;;;;;;;36.42;27.05;;;;;;;5.90;100.00;103810.72;5042109;28;20025;-80
2021/12/17 00:59:48;;;;;;;39.22;25.65;;;;;;;5.95;100.00;103817.81;5053967;28;20165;-80
2021/12/17 01:02:18;;;;;;;38.97;25.55;;;;;;;5.99;100.00;103821.38;5039953;28;20480;-80
2021/12/17 01:04:51;;;;;;;39.92;27.13;;;;;;;6.03;100.00;103816.91;5032243;28;20108;-80
2021/12/17 01:07:19;;;;;;;37.55;26.40;;;;;;;6.01;100.00;103819.59;5040641;28;20029;-80
2021/12/17 01:09:45;;;;;;;36.17;25.08;;;;;;;6.02;100.00;103816.03;5031083;28;20393;-80
2021/12/17 01:12:12;;;;;;;38.95;27.48;;;;;;;6.04;100.00;103814.22;5035792;28;20024;-80
2021/12/17 01:14:40;;;;;;;33.85;24.58;;;;;;;6.05;100.00;103812.47;5032606;28;20033;-80
2021/12/17 01:17:08;;;;;;;38.65;25.35;;;;;;;6.06;100.00;103808.88;5040709;28;20025;-80
2021/12/17 01:24:52;;;;;;;38.67;24.60;;;;;;;6.04;100.00;103808.00;5034723;28;20040;-81
2021/12/17 01:35:32;;;;;;;33.80;23.73;;;;;;;6.06;100.00;103803.53;5031338;28;20101;-80
2021/12/17 01:43:41;;;;;;;36.25;24.75;;;;;;;6.08;100.00;103804.44;5034824;28;20095;-80
2021/12/17 01:46:08;;;;;;;35.00;23.55;;;;;;;6.05;100.00;103804.44;5036803;28;20021;-80
2021/12/17 01:48:53;;;;;;;35.45;24.95;;;;;;;6.03;100.00;103801.78;5043700;28;20045;-80
2021/12/17 01:56:56;;;;;;;35.85;24.80;;;;;;;6.10;100.00;103798.16;5030331;28;20103;-80
2021/12/17 01:59:28;;;;;;;36.22;24.95;;;;;;;6.11;100.00;103796.38;5034993;28;20036;-80
2021/12/17 02:02:00;;;;;;;37.17;26.15;;;;;;;6.10;100.00;103792.81;5045952;28;20366;-80
2021/12/17 02:04:26;;;;;;;34.60;24.20;;;;;;;6.13;100.00;103799.91;5032272;28;20029;-80
2021/12/17 02:06:51;;;;;;;33.67;24.20;;;;;;;6.13;100.00;103802.59;5029353;28;20044;-80
2021/12/17 02:20:46;;;;;;;37.38;26.80;;;;;;;6.11;100.00;103796.38;5022222;28;20044;-80
2021/12/17 02:28:49;;;;;;;39.63;25.40;;;;;;;6.14;100.00;103793.69;4981601;28;20033;-80
2021/12/17 02:33:40;;;;;;;41.63;26.80;;;;;;;6.17;100.00;103793.66;5018975;28;20159;-80
2021/12/17 02:36:06;;;;;;;35.72;24.90;;;;;;;6.17;100.00;103796.34;5028000;28;20080;-80
2021/12/17 02:38:38;;;;;;;35.30;25.77;;;;;;;6.19;100.00;103812.34;5026208;28;20141;-80
2021/12/17 02:46:35;;;;;;;36.70;27.92;;;;;;;6.27;100.00;103819.41;5030050;28;20406;-80
2021/12/17 02:49:01;;;;;;;42.88;26.90;;;;;;;6.24;100.00;103808.75;5009822;28;20026;-80
2021/12/17 02:51:27;;;;;;;39.17;27.05;;;;;;;6.26;100.00;103804.28;5019954;28;20451;-80
2021/12/17 02:53:54;;;;;;;37.83;26.35;;;;;;;6.29;100.00;103796.22;5040391;28;20449;-80
2021/12/17 02:56:21;;;;;;;36.80;25.60;;;;;;;6.26;100.00;103804.28;5046463;28;20466;-80
2021/12/17 02:58:46;;;;;;;37.55;26.30;;;;;;;6.29;100.00;103803.38;5046633;28;20033;-80
2021/12/17 03:01:13;;;;;;;37.10;24.65;;;;;;;6.30;100.00;103806.03;5037043;28;20112;-80
2021/12/17 03:03:40;;;;;;;37.15;26.77;;;;;;;6.31;100.00;103801.59;5036748;28;20033;-80
2021/12/17 03:06:05;;;;;;;41.03;26.33;;;;;;;6.33;100.00;103804.25;5039311;28;20063;-80
2021/12/17 03:08:31;;;;;;;47.80;29.80;;;;;;;6.38;100.00;103802.41;5037224;28;20060;-80
2021/12/17 03:10:58;;;;;;;39.53;26.27;;;;;;;6.36;100.00;103801.56;5046935;28;20026;-80
2021/12/17 03:13:24;;;;;;;43.65;28.17;;;;;;;6.34;100.00;103806.00;5046588;28;20496;-80
2021/12/17 03:16:03;;;;;;;43.15;26.83;;;;;;;6.34;100.00;103812.25;5036289;28;20041;-80
2021/12/17 03:23:55;;;;;;;45.75;29.88;;;;;;;6.43;100.00;103811.28;5047873;28;20090;-80
2021/12/17 03:26:24;;;;;;;44.33;29.77;;;;;;;6.42;100.00;103814.84;5033728;28;20458;-80
2021/12/17 03:28:52;;;;;;;44.30;29.00;;;;;;;6.42;100.00;103817.53;5038702;28;20564;-80
2021/12/17 03:31:19;;;;;;;50.30;30.40;;;;;;;6.47;100.00;103823.69;5041157;28;20505;-80
2021/12/17 03:33:46;;;;;;;51.33;29.52;;;;;;;6.46;100.00;103812.13;5043826;28;20090;-80
2021/12/17 03:36:14;;;;;;;49.95;30.83;;;;;;;6.50;100.00;103814.78;5049012;28;20079;-80
2021/12/17 03:38:41;;;;;;;57.63;32.30;;;;;;;6.52;100.00;103821.91;5042407;28;20040;-80
2021/12/17 03:41:22;;;;;;;65.90;35.67;;;;;;;6.55;100.00;103811.19;5042059;28;20421;-80
2021/12/17 03:43:50;;;;;;;67.65;37.28;;;;;;;6.62;100.00;103820.03;5043125;28;20036;-80
2021/12/17 03:46:17;;;;;;;63.03;34.45;;;;;;;6.65;100.00;103820.00;5031951;28;20078;-80
2021/12/17 03:48:43;;;;;;;58.78;33.50;;;;;;;6.64;100.00;103815.56;5032438;28;20025;-80
2021/12/17 03:51:15;;;;;;;65.18;36.00;;;;;;;6.65;100.00;103820.88;5030967;28;20037;-80
2021/12/17 03:53:45;;;;;;;62.08;34.35;;;;;;;6.67;100.00;103811.97;5032117;28;20029;-80
2021/12/17 03:56:11;;;;;;;67.72;36.03;;;;;;;6.68;100.00;103811.97;5039239;28;20175;-80
2021/12/17 03:58:36;;;;;;;69.07;36.15;;;;;;;6.73;100.00;103809.25;5041221;28;20040;-80
2021/12/17 04:01:03;;;;;;;65.75;35.30;;;;;;;6.73;100.00;103810.09;5052373;28;20031;-80
2021/12/17 04:03:28;;;;;;;69.43;35.83;;;;;;;6.76;100.00;103817.22;5045975;28;20028;-80
2021/12/17 04:05:54;;;;;;;67.78;36.47;;;;;;;6.77;100.00;103819.88;5047802;28;20375;-80
2021/12/17 04:08:19;;;;;;;64.05;36.05;;;;;;;6.77;100.00;103811.84;5030585;28;20127;-80
2021/12/17 04:10:49;;;;;;;70.47;37.30;;;;;;;6.74;100.00;103809.22;5033698;28;20057;-80
2021/12/17 04:13:26;;;;;;;74.78;35.22;;;;;;;6.76;100.00;103814.56;5039555;28;20459;-80
2021/12/17 04:16:28;;;;;;;71.97;36.85;;;;;;;6.75;100.00;103810.09;5039045;28;20036;-80
2021/12/17 04:18:43;;;;;;;68.78;35.55;;;;;;;6.73;100.00;103804.75;5030468;28;20040;-80
2021/12/17 04:21:15;;;;;;;74.35;34.80;;;;;;;6.74;100.00;103803.88;5044883;28;20498;-80
2021/12/17 04:23:41;;;;;;;73.72;34.42;;;;;;;6.79;100.00;103803.81;5034031;28;20047;-80
2021/12/17 04:26:06;;;;;;;82.63;39.38;;;;;;;6.77;100.00;103810.97;5039628;28;20051;-80
2021/12/17 04:28:32;;;;;;;75.25;36.00;;;;;;;6.76;100.00;103807.41;5047259;28;20017;-80
2021/12/17 04:30:57;;;;;;;85.75;36.83;;;;;;;6.81;100.00;103813.59;5042085;28;20033;-80
2021/12/17 04:33:23;;;;;;;82.72;39.42;;;;;;;6.78;100.00;103810.97;5034049;28;20453;-80
2021/12/17 04:35:48;;;;;;;73.97;34.47;;;;;;;6.76;100.00;103810.06;5045252;28;20040;-80
2021/12/17 04:38:15;;;;;;;82.30;38.22;;;;;;;6.77;100.00;103808.31;5035863;28;20111;-80
2021/12/17 04:40:43;;;;;;;81.88;38.03;;;;;;;6.78;100.00;103807.41;5030747;28;20040;-80
2021/12/17 04:43:17;;;;;;;85.82;37.20;;;;;;;6.78;100.00;103812.78;5043532;28;20109;-80
2021/12/17 04:45:58;;;;;;;85.60;39.40;;;;;;;6.77;100.00;103809.19;5031763;28;20385;-80
2021/12/17 04:59:20;;;;;;;90.90;37.38;;;;;;;6.80;100.00;103798.47;5049597;28;20382;-80
2021/12/17 05:01:45;;;;;;;95.22;40.05;;;;;;;6.84;100.00;103799.34;5040781;28;20021;-80
2021/12/17 05:04:10;;;;;;;92.10;40.85;;;;;;;6.83;100.00;103800.22;5040535;28;20044;-80
2021/12/17 05:06:36;;;;;;;79.32;37.78;;;;;;;6.82;100.00;103802.03;5037350;28;20021;-80
2021/12/17 05:09:09;;;;;;;97.10;42.33;;;;;;;6.82;100.00;103810.03;5034655;28;20028;-80
2021/12/17 05:22:05;;;;;;;96.15;40.38;;;;;;;6.86;100.00;103807.34;5046954;28;20073;-81
2021/12/17 05:24:31;;;;;;;92.75;39.22;;;;;;;6.85;100.00;103803.75;5035162;28;20180;-80
2021/12/17 05:26:56;;;;;;;83.40;37.30;;;;;;;6.85;100.00;103795.72;5043737;28;20059;-80
2021/12/17 05:29:21;;;;;;;88.60;36.13;;;;;;;6.84;100.00;103812.69;5044665;28;20043;-80
2021/12/17 05:31:46;;;;;;;83.25;37.22;;;;;;;6.84;100.00;103812.69;5047747;28;20520;-80
2021/12/17 05:34:11;;;;;;;81.25;37.95;;;;;;;6.88;100.00;103808.19;5035206;28;20136;-80
2021/12/17 05:36:37;;;;;;;85.57;37.45;;;;;;;6.87;100.00;103818.00;5043097;28;20024;-80
2021/12/17 05:39:02;;;;;;;84.95;36.25;;;;;;;6.87;100.00;103814.44;5044546;28;20041;-80
2021/12/17 05:41:28;;;;;;;78.88;36.20;;;;;;;6.84;100.00;103815.38;5037803;28;20441;-80
2021/12/17 05:43:56;;;;;;;76.95;33.45;;;;;;;6.85;100.00;103825.16;5038927;28;20433;-80
2021/12/17 05:46:36;;;;;;;76.32;32.75;;;;;;;6.88;100.00;103830.50;5036944;28;20025;-80
2021/12/17 05:49:02;;;;;;;75.13;33.60;;;;;;;6.85;100.00;103822.47;5039032;28;20108;-80
2021/12/17 05:51:27;;;;;;;69.47;31.92;;;;;;;6.83;100.00;103826.97;5049822;28;20099;-80
2021/12/17 05:53:53;;;;;;;71.95;33.50;;;;;;;6.82;100.00;103818.06;5045940;28;20132;-80
2021/12/17 05:56:18;;;;;;;76.53;30.52;;;;;;;6.85;100.00;103811.78;5044332;28;20074;-80
2021/12/17 05:58:43;;;;;;;70.50;30.42;;;;;;;6.82;100.00;103815.38;5039323;28;20044;-80
2021/12/17 06:01:09;;;;;;;68.07;31.63;;;;;;;6.78;100.00;103816.31;5053223;28;20035;-80
2021/12/17 06:03:34;;;;;;;67.22;32.40;;;;;;;6.81;100.00;103818.09;5050321;28;20104;-80
2021/12/17 06:05:59;;;;;;;65.15;29.13;;;;;;;6.81;100.00;103818.09;5039334;28;20029;-80
2021/12/17 06:08:24;;;;;;;71.72;30.92;;;;;;;6.82;100.00;103825.19;5039863;28;20037;-80
2021/12/17 06:10:50;;;;;;;61.80;30.88;;;;;;;6.81;100.00;103826.97;5045278;28;20039;-80
2021/12/17 06:13:15;;;;;;;63.42;29.17;;;;;;;6.85;100.00;103825.16;5039156;28;20018;-80
2021/12/17 06:15:40;;;;;;;74.50;31.67;;;;;;;6.87;100.00;103828.72;5042907;28;20408;-80
2021/12/17 06:18:05;;;;;;;75.78;30.75;;;;;;;6.88;100.00;103835.84;5042261;28;20044;-80
2021/12/17 06:20:31;;;;;;;68.90;30.55;;;;;;;6.86;100.00;103837.63;5048793;28;20086;-81
2021/12/17 06:22:56;;;;;;;72.13;30.13;;;;;;;6.88;100.00;103833.16;5037156;28;20075;-80
2021/12/17 06:25:21;;;;;;;68.65;28.55;;;;;;;6.86;100.00;103829.59;5050723;28;20082;-80
2021/12/17 06:27:47;;;;;;;63.20;29.95;;;;;;;6.83;100.00;103837.66;5038866;28;20389;-80
2021/12/17 06:30:15;;;;;;;65.57;29.17;;;;;;;6.83;100.00;103843.00;5060308;28;20064;-80
2021/12/17 06:32:41;;;;;;;62.30;27.70;;;;;;;6.82;100.00;103852.81;5042761;28;20473;-80
2021/12/17 06:35:07;;;;;;;62.47;28.98;;;;;;;6.84;100.00;103844.78;5045805;28;20053;-80
2021/12/17 06:37:34;;;;;;;57.60;27.55;;;;;;;6.83;100.00;103848.34;5042234;28;20143;-80
2021/12/17 06:40:00;;;;;;;62.97;27.80;;;;;;;6.82;100.00;103838.53;5047412;28;20033;-80
2021/12/17 06:42:26;;;;;;;58.72;27.08;;;;;;;6.82;100.00;103843.88;5046642;28;20055;-80
2021/12/17 06:44:55;;;;;;;52.17;27.30;;;;;;;6.81;100.00;103847.50;5048792;28;20044;-80
2021/12/17 06:50:01;;;;;;;62.33;28.33;;;;;;;6.82;100.00;103849.25;5041299;28;20025;-80
2021/12/17 06:55:45;;;;;;;57.08;26.52;;;;;;;6.80;100.00;103833.22;5036387;28;20098;-80
2021/12/17 07:06:41;;;;;;;49.70;26.27;;;;;;;6.79;100.00;103843.91;5013070;28;20119;-80
2021/12/17 07:11:49;;;;;;;48.17;23.50;;;;;;;6.81;100.00;103844.81;5023947;28;20026;-81
2021/12/17 07:17:13;;;;;;;47.17;23.85;;;;;;;6.83;100.00;103849.22;5010431;28;20552;-80
2021/12/17 07:22:50;;;;;;;52.55;25.65;;;;;;;6.81;100.00;103852.84;5026065;28;20103;-81
2021/12/17 07:40:51;;;;;;;48.92;23.23;;;;;;;6.80;100.00;103838.56;5051036;28;20048;-80
2021/12/17 07:43:26;;;;;;;50.28;22.67;;;;;;;6.77;100.00;103843.94;5039734;28;20401;-80
2021/12/17 07:45:52;;;;;;;50.63;23.90;;;;;;;6.77;100.00;103843.06;5031883;28;20026;-80
2021/12/17 07:48:18;;;;;;;46.25;21.90;;;;;;;6.74;100.00;103843.09;5044624;28;20167;-80
2021/12/17 07:50:43;;;;;;;44.38;23.40;;;;;;;6.75;100.00;103839.50;5034479;28;20072;-80
2021/12/17 07:53:09;;;;;;;48.33;22.27;;;;;;;6.73;100.00;103839.50;5030561;28;20113;-80
2021/12/17 07:55:34;;;;;;;46.75;22.42;;;;;;;6.79;100.00;103835.91;5043976;28;20121;-80
2021/12/17 07:57:59;;;;;;;47.40;24.83;;;;;;;6.79;100.00;103834.13;5037190;28;20033;-80
2021/12/17 08:00:25;;;;;;;46.30;23.13;;;;;;;6.80;100.00;103835.00;5043771;28;20390;-80
2021/12/17 08:02:50;;;;;;;49.00;22.33;;;;;;;6.77;100.00;103833.25;5040290;28;20040;-80
2021/12/17 08:05:17;;;;;;;47.55;23.00;;;;;;;6.77;100.00;103835.91;5055831;28;20497;-80
2021/12/17 08:07:43;;;;;;;44.80;23.38;;;;;;;6.76;100.00;103830.59;5056075;28;20388;-80
2021/12/17 08:10:08;;;;;;;42.13;22.65;;;;;;;6.81;100.00;103839.47;5045431;28;20078;-80
2021/12/17 08:12:35;;;;;;;42.55;22.48;;;;;;;6.78;100.00;103839.50;5044947;28;20091;-80
2021/12/17 08:15:00;;;;;;;40.50;20.98;;;;;;;6.76;100.00;103849.31;5046220;28;20033;-80
2021/12/17 08:17:43;;;;;;;45.13;23.20;;;;;;;6.76;100.00;103843.94;5059402;28;20023;-80
2021/12/17 08:25:50;;;;;;;42.50;23.65;;;;;;;6.81;100.00;103851.03;5048034;28;20035;-80
2021/12/17 08:28:17;;;;;;;40.53;22.80;;;;;;;6.84;100.00;103855.47;5044503;28;20017;-80
2021/12/17 08:30:42;;;;;;;45.03;25.00;;;;;;;6.80;100.00;103854.59;5062946;28;20020;-80
2021/12/17 08:33:07;;;;;;;46.92;25.08;;;;;;;6.79;100.00;103862.63;5059637;28;20024;-80
2021/12/17 08:35:34;;;;;;;48.65;25.42;;;;;;;6.81;100.00;103868.88;5046448;28;20059;-80
2021/12/17 08:38:04;;;;;;;43.10;24.85;;;;;;;6.77;100.00;103876.00;5053592;28;20035;-80
2021/12/17 08:40:30;;;;;;;42.83;25.60;;;;;;;6.80;100.00;103870.63;5047369;28;20032;-80
2021/12/17 08:42:56;;;;;;;49.95;26.85;;;;;;;6.77;100.00;103865.31;5045467;28;20021;-79
2021/12/17 08:45:21;;;;;;;39.33;24.38;;;;;;;6.79;100.00;103868.88;5044080;28;20203;-80
2021/12/17 08:47:48;;;;;;;39.28;23.63;;;;;;;6.78;100.00;103876.91;5047853;28;20037;-80
2021/12/17 08:50:14;;;;;;;47.35;25.73;;;;;;;6.82;100.00;103876.88;5052611;28;20108;-80
2021/12/17 08:52:41;;;;;;;44.08;24.40;;;;;;;6.78;100.00;103871.56;5059993;28;20404;-80
2021/12/17 08:55:07;;;;;;;45.33;24.58;;;;;;;6.80;100.00;103867.09;5064307;28;20049;-80
2021/12/17 08:57:33;;;;;;;39.10;22.30;;;;;;;6.77;100.00;103856.44;5045514;28;20495;-80
2021/12/17 09:00:04;;;;;;;42.60;24.05;;;;;;;6.79;100.00;103862.63;5045939;28;20025;-80
2021/12/17 09:02:29;;;;;;;41.85;22.95;;;;;;;6.83;100.00;103859.03;5047903;28;20060;-80
2021/12/17 09:04:54;;;;;;;43.20;23.30;;;;;;;6.81;100.00;103855.50;5053148;28;20063;-80
2021/12/17 09:07:20;;;;;;;45.03;22.27;;;;;;;6.83;100.00;103867.06;5045590;28;20493;-80
2021/12/17 09:09:47;;;;;;;42.45;23.52;;;;;;;6.88;100.00;103867.91;5051876;28;20070;-80
2021/12/17 09:12:12;;;;;;;46.53;23.73;;;;;;;6.88;100.00;103859.00;5055712;28;20029;-80
2021/12/17 09:14:38;;;;;;;44.60;23.25;;;;;;;6.87;100.00;103865.22;5047325;28;20109;-80
2021/12/17 09:17:03;;;;;;;43.53;21.70;;;;;;;6.89;100.00;103869.66;5042237;28;20509;-80
2021/12/17 09:19:28;;;;;;;47.97;24.08;;;;;;;6.94;100.00;103877.66;5044592;28;20553;-80
2021/12/17 09:21:53;;;;;;;38.90;20.45;;;;;;;6.94;100.00;103874.97;5044381;28;20061;-81
2021/12/17 09:24:19;;;;;;;45.55;24.45;;;;;;;6.94;100.00;103886.56;5046332;28;20024;-81
2021/12/17 09:26:44;;;;;;;38.45;21.20;;;;;;;6.95;100.00;103896.34;5056578;28;20036;-81
2021/12/17 09:29:09;;;;;;;43.13;23.92;;;;;;;6.96;100.00;103892.78;5055571;28;20071;-80
2021/12/17 09:31:36;;;;;;;43.63;22.67;;;;;;;7.00;100.00;103899.88;5054409;28;20318;-80
2021/12/17 09:34:02;;;;;;;44.33;22.95;;;;;;;7.04;100.00;103899.84;5060021;28;20104;-80
2021/12/17 09:36:27;;;;;;;41.83;22.30;;;;;;;6.99;100.00;103899.91;5047656;28;20108;-80
2021/12/17 09:38:53;;;;;;;39.33;22.38;;;;;;;7.04;100.00;103906.06;5045537;28;20068;-80
2021/12/17 09:41:20;;;;;;;38.45;21.23;;;;;;;7.03;100.00;103908.75;5041688;28;20078;-80
2021/12/17 09:43:46;;;;;;;43.75;23.52;;;;;;;7.00;100.00;103912.38;5043246;28;20458;-80
2021/12/17 09:46:12;;;;;;;45.67;22.33;;;;;;;6.96;100.00;103911.50;5053780;28;20017;-80
2021/12/17 09:48:38;;;;;;;39.70;22.60;;;;;;;7.04;100.00;103910.53;5047968;28;20028;-80
2021/12/17 09:51:06;;;;;;;42.17;22.10;;;;;;;7.03;100.00;103920.38;5047485;28;20515;-80
2021/12/17 09:53:33;;;;;;;44.45;21.70;;;;;;;7.06;100.00;103912.31;5051481;28;20075;-80
2021/12/17 09:55:59;;;;;;;48.95;23.60;;;;;;;7.04;100.00;103921.25;5046179;28;20025;-80
2021/12/17 09:58:24;;;;;;;51.47;24.58;;;;;;;7.06;100.00;103927.44;5058121;28;20396;-80
2021/12/17 10:00:50;;;;;;;44.38;23.23;;;;;;;7.07;100.00;103929.22;5050265;28;20028;-80
2021/12/17 10:03:15;;;;;;;51.75;22.67;;;;;;;7.12;100.00;103920.28;5041362;28;20041;-80
2021/12/17 10:05:44;;;;;;;42.88;23.63;;;;;;;7.07;100.00;103921.22;5041591;28;20125;-80
2021/12/17 10:08:12;;;;;;;39.50;22.23;;;;;;;7.09;100.00;103922.09;5045363;28;20030;-80
2021/12/17 10:10:41;;;;;;;43.05;21.30;;;;;;;7.12;100.00;103919.41;5039446;28;20034;-80
2021/12/17 10:13:20;;;;;;;47.17;23.88;;;;;;;7.11;100.00;103928.31;5041636;28;20091;-80
2021/12/17 10:15:49;;;;;;;45.40;24.35;;;;;;;7.12;100.00;103927.41;5051535;28;20494;-80
2021/12/17 10:18:15;;;;;;;42.95;24.23;;;;;;;7.20;100.00;103930.88;5043367;28;20024;-80
2021/12/17 10:20:54;;;;;;;42.70;23.23;;;;;;;7.22;100.00;103926.44;5045762;28;20037;-80
2021/12/17 10:23:21;;;;;;;42.42;21.40;;;;;;;7.19;100.00;103918.44;5055600;28;20048;-80
2021/12/17 10:25:47;;;;;;;41.83;22.50;;;;;;;7.18;100.00;103928.22;5048720;28;20389;-80
2021/12/17 10:28:13;;;;;;;44.22;22.90;;;;;;;7.23;100.00;103933.53;5042297;28;20029;-80
2021/12/17 10:30:42;;;;;;;39.85;21.85;;;;;;;7.23;100.00;103925.50;5057476;28;20128;-80
2021/12/17 10:33:14;;;;;;;39.47;21.80;;;;;;;7.23;100.00;103928.19;5050290;28;20040;-80
2021/12/17 10:35:43;;;;;;;47.00;21.77;;;;;;;7.21;100.00;103937.16;5052276;28;20441;-80
2021/12/17 10:38:13;;;;;;;47.75;24.00;;;;;;;7.22;100.00;103933.53;5048260;28;20036;-80
2021/12/17 10:40:39;;;;;;;44.90;22.52;;;;;;;7.24;100.00;103932.63;5048250;28;20024;-80
2021/12/17 10:43:16;;;;;;;40.60;21.58;;;;;;;7.24;100.00;103924.63;5050172;28;20405;-80
2021/12/17 10:45:57;;;;;;;44.22;23.90;;;;;;;7.27;100.00;103929.94;5046559;28;20021;-80
2021/12/17 10:50:50;;;;;;;45.40;22.48;;;;;;;7.30;100.00;103929.91;5056042;28;20126;-80
2021/12/17 10:53:16;;;;;;;40.38;22.42;;;;;;;7.28;100.00;103925.50;5055222;28;20083;-80
2021/12/17 10:55:46;;;;;;;35.97;19.35;;;;;;;7.34;100.00;103934.31;5048495;28;20024;-80
2021/12/17 10:58:11;;;;;;;;;;;;;;;7.39;100.00;103930.72;5045885;28;20029;-80
2021/12/17 11:00:54;;;;;;;38.45;19.73;;;;;;;7.38;100.00;103942.31;5055997;28;19928;-80
2021/12/17 11:03:19;;;;;;;39.00;19.08;;;;;;;7.37;100.00;103935.22;5048705;28;20432;-80
2021/12/17 11:05:44;;;;;;;40.88;20.70;;;;;;;7.39;100.00;103938.75;5050140;28;20032;-80
2021/12/17 11:08:24;;;;;;;38.03;17.15;;;;;;;7.37;100.00;103935.22;5050028;28;20036;-80
2021/12/17 11:10:57;;;;;;;33.63;15.90;;;;;;;7.35;100.00;103933.44;5047305;28;20025;-80
2021/12/17 11:13:24;;;;;;;36.05;16.77;;;;;;;7.38;100.00;103937.88;5055274;28;20118;-80
2021/12/17 11:15:51;;;;;;;35.90;16.33;;;;;;;7.38;100.00;103932.53;5062361;28;20119;-80
2021/12/17 11:18:17;;;;;;;33.78;14.73;;;;;;;7.45;100.00;103923.53;5043940;28;20025;-80
2021/12/17 11:20:43;;;;;;;36.28;15.25;;;;;;;7.46;100.00;103927.97;5058894;28;20469;-80
2021/12/17 11:23:14;;;;;;;33.97;15.05;;;;;;;7.48;100.00;103926.16;5053080;28;20140;-80
2021/12/17 11:25:42;;;;;;;35.58;14.27;;;;;;;7.50;100.00;103924.34;5050355;28;20124;-80
2021/12/17 11:28:10;;;;;;;34.40;15.68;;;;;;;7.52;100.00;103929.69;5047636;28;20028;-80
2021/12/17 11:30:38;;;;;;;35.13;13.77;;;;;;;7.55;100.00;103918.94;5057457;28;20017;-80
2021/12/17 11:33:04;;;;;;;30.58;13.40;;;;;;;7.62;100.00;103922.44;5049356;28;20017;-80
2021/12/17 11:35:31;;;;;;;37.63;15.15;;;;;;;7.59;100.00;103915.34;5047494;28;20777;-80
2021/12/17 11:38:00;;;;;;;35.50;14.88;;;;;;;7.63;100.00;103917.06;5048551;28;20036;-80
2021/12/17 11:41:09;;;;;;;39.55;14.05;;;;;;;7.66;100.00;103910.81;5051316;28;20576;-80
2021/12/17 11:43:36;;;;;;;35.38;14.30;;;;;;;7.65;100.00;103899.19;5012548;28;20037;-80
2021/12/17 11:46:10;;;;;;;33.25;14.13;;;;;;;7.64;100.00;103897.44;5063639;28;20392;-80
2021/12/17 11:48:35;;;;;;;32.65;13.43;;;;;;;7.63;100.00;103898.34;5047470;28;20028;-80
2021/12/17 11:51:15;;;;;;;32.38;13.82;;;;;;;7.66;100.00;103895.63;5043989;28;20112;-80
2021/12/17 11:53:55;;;;;;;36.03;15.43;;;;;;;7.65;100.00;103892.97;5046178;28;20064;-80
2021/12/17 11:56:47;;;;;;;32.10;14.70;;;;;;;7.68;100.00;103893.81;5044014;28;20478;-80
2021/12/17 11:59:29;;;;;;;31.90;13.38;;;;;;;7.72;100.00;103883.94;5050455;28;20377;-80
2021/12/17 12:02:11;;;;;;;36.00;14.93;;;;;;;7.74;100.00;103886.59;5059493;28;20029;-80
2021/12/17 12:04:37;;;;;;;34.72;15.00;;;;;;;7.72;100.00;103883.03;5046922;28;20017;-80
2021/12/17 12:07:02;;;;;;;36.10;16.73;;;;;;;7.73;100.00;103879.47;5048006;28;20086;-80
2021/12/17 12:09:59;;;;;;;32.97;13.27;;;;;;;7.76;100.00;103879.44;5044423;28;20528;-80
2021/12/17 12:12:33;;;;;;;33.72;16.35;;;;;;;7.77;100.00;103886.56;5051497;28;20493;-80
2021/12/17 12:15:19;;;;;;;31.48;14.40;;;;;;;7.77;100.00;103892.81;5047889;28;20424;-80
2021/12/17 12:17:57;;;;;;;34.95;15.50;;;;;;;7.77;100.00;103900.81;5038970;28;20374;-80
2021/12/17 12:20:43;;;;;;;31.50;16.40;;;;;;;7.79;100.00;103892.78;5053523;28;20029;-80
2021/12/17 12:23:35;;;;;;;32.75;14.40;;;;;;;7.79;100.00;103898.13;5046246;28;20045;-80
2021/12/17 12:26:00;;;;;;;30.17;14.18;;;;;;;7.76;100.00;103900.84;5050599;28;20033;-80
2021/12/17 12:31:20;;;;;;;32.25;14.95;;;;;;;7.77;100.00;103905.31;5053746;28;20035;-80
2021/12/17 12:34:04;;;;;;;30.75;14.32;;;;;;;7.77;100.00;103898.16;5039477;28;20037;-80
2021/12/17 12:36:53;;;;;;;33.10;15.23;;;;;;;7.74;100.00;103894.66;5050577;28;20034;-80
2021/12/17 12:39:25;;;;;;;31.27;13.93;;;;;;;7.72;100.00;103891.06;5047930;28;20243;-80
2021/12/17 12:42:09;;;;;;;33.05;14.57;;;;;;;7.73;100.00;103888.41;5042716;28;20493;-80
2021/12/17 12:44:43;;;;;;;30.08;13.93;;;;;;;7.72;100.00;103886.63;5042929;28;20120;-80
2021/12/17 12:47:10;;;;;;;29.27;12.98;;;;;;;7.68;100.00;103885.78;5042162;28;20135;-80
2021/12/17 12:50:07;;;;;;;29.67;13.00;;;;;;;7.69;100.00;103876.84;5052970;28;20032;-80
2021/12/17 12:52:54;;;;;;;27.30;12.18;;;;;;;7.70;100.00;103872.34;5043005;28;20029;-80
2021/12/17 12:55:38;;;;;;;30.38;13.77;;;;;;;7.67;100.00;103878.66;5046552;28;20036;-80
2021/12/17 12:58:03;;;;;;;28.60;12.95;;;;;;;7.66;100.00;103886.72;5047898;28;20031;-80
2021/12/17 13:00:45;;;;;;;29.50;12.43;;;;;;;7.64;100.00;103876.03;5054800;28;20384;-80
2021/12/17 13:03:14;;;;;;;24.58;11.35;;;;;;;7.66;100.00;103879.56;5050740;28;20027;-80
2021/12/17 13:05:43;;;;;;;24.65;10.60;;;;;;;7.68;100.00;103877.72;5056461;28;20058;-80
2021/12/17 13:08:12;;;;;;;25.63;9.90;;;;;;;7.68;100.00;103883.09;5051505;28;20021;-80
2021/12/17 13:10:40;;;;;;;23.90;9.73;;;;;;;7.63;100.00;103882.28;5048245;28;20543;-80
2021/12/17 13:13:18;;;;;;;23.17;9.45;;;;;;;7.62;100.00;103880.50;5047882;28;20037;-80
2021/12/17 13:21:32;;;;;;;25.38;10.65;;;;;;;7.51;100.00;103885.06;5043833;28;20033;-80
2021/12/17 13:24:12;;;;;;;25.92;11.35;;;;;;;7.51;100.00;103883.31;5055691;28;20140;-80
2021/12/17 13:26:40;;;;;;;25.77;11.93;;;;;;;7.48;100.00;103885.13;5046339;28;20094;-80
2021/12/17 13:29:15;;;;;;;27.85;12.43;;;;;;;7.47;100.00;103878.88;5052113;28;20071;-80
2021/12/17 13:32:01;;;;;;;26.98;11.20;;;;;;;7.46;100.00;103882.47;5063134;28;20440;-80
2021/12/17 13:34:37;;;;;;;27.25;11.73;;;;;;;7.44;100.00;103878.06;5052120;28;20044;-80
2021/12/17 13:37:22;;;;;;;27.45;11.60;;;;;;;7.40;100.00;103881.66;5049369;28;20040;-80
2021/12/17 13:40:00;;;;;;;26.75;12.50;;;;;;;7.38;100.00;103878.09;5052396;28;20044;-80
2021/12/17 13:42:39;;;;;;;26.83;11.38;;;;;;;7.40;100.00;103876.31;5047267;28;20033;-80
2021/12/17 13:45:10;;;;;;;28.00;10.98;;;;;;;7.35;100.00;103885.28;5047126;28;20548;-80
2021/12/17 13:47:47;;;;;;;25.17;10.07;;;;;;;7.38;100.00;103878.09;5042307;28;20025;-80
2021/12/17 13:50:31;;;;;;;28.50;11.80;;;;;;;7.38;100.00;103868.31;5051843;28;20433;-80
2021/12/17 13:53:00;;;;;;;23.52;10.50;;;;;;;7.37;100.00;103871.88;5044989;28;20611;-80
2021/12/17 13:55:39;;;;;;;25.83;9.30;;;;;;;7.38;100.00;103870.06;5051487;28;20016;-80
2021/12/17 13:58:10;;;;;;;21.50;7.45;;;;;;;7.36;100.00;103878.13;5052862;28;20056;-80
2021/12/17 14:00:39;;;;;;;19.98;7.22;;;;;;;7.32;100.00;103882.63;5054202;28;20086;-80
2021/12/17 14:03:09;;;;;;;18.73;6.68;;;;;;;7.33;100.00;103881.69;5045849;28;20076;-80
2021/12/17 14:05:44;;;;;;;19.73;7.10;;;;;;;7.31;100.00;103877.28;5046890;28;20024;-80